sensor_id;sensor_type;location;lat;lon;timestamp;temperature;humidity
19164;DHT22;9714;51.208;4.242;2023-09-12T00:01:45;22.10;99.90
19164;DHT22;9714;51.208;4.242;2023-09-12T00:04:15;22.00;99.90
19164;DHT22;9714;51.208;4.242;2023-09-12T00:06:42;22.00;99.90
19164;DHT22;9714;51.208;4.242;2023-09-12T00:09:11;21.90;99.90
19164;DHT22;9714;51.208;4.242;2023-09-12T00:11:38;21.90;99.90
19164;DHT22;9714;51.208;4.242;2023-09-12T00:14:09;21.90;99.90
19164;DHT22;9714;51.208;4.242;2023-09-12T00:16:36;21.90;99.90
19164;DHT22;9714;51.208;4.242;2023-09-12T00:19:03;21.80;99.90
19164;DHT22;9714;51.208;4.242;2023-09-12T00:21:32;21.80;99.90
19164;DHT22;9714;51.208;4.242;2023-09-12T00:23:59;21.70;99.90
19164;DHT22;9714;51.208;4.242;2023-09-12T00:26:27;21.60;99.90
19164;DHT22;9714;51.208;4.242;2023-09-12T00:28:56;21.70;99.90
19164;DHT22;9714;51.208;4.242;2023-09-12T00:31:24;21.70;99.90
19164;DHT22;9714;51.208;4.242;2023-09-12T00:33:51;21.70;99.90
19164;DHT22;9714;51.208;4.242;2023-09-12T00:36:19;21.60;99.90
19164;DHT22;9714;51.208;4.242;2023-09-12T00:38:55;21.70;99.90
19164;DHT22;9714;51.208;4.242;2023-09-12T00:41:23;21.80;99.90
19164;DHT22;9714;51.208;4.242;2023-09-12T00:43:51;21.60;99.90
19164;DHT22;9714;51.208;4.242;2023-09-12T00:46:19;21.60;99.90
19164;DHT22;9714;51.208;4.242;2023-09-12T00:48:49;21.60;99.90
19164;DHT22;9714;51.208;4.242;2023-09-12T00:51:19;21.70;99.90
19164;DHT22;9714;51.208;4.242;2023-09-12T00:53:47;21.60;99.90
19164;DHT22;9714;51.208;4.242;2023-09-12T00:56:17;21.60;99.90
19164;DHT22;9714;51.208;4.242;2023-09-12T00:58:45;21.60;99.90
19164;DHT22;9714;51.208;4.242;2023-09-12T01:01:12;21.80;99.90
19164;DHT22;9714;51.208;4.242;2023-09-12T01:03:40;22.00;99.90
19164;DHT22;9714;51.208;4.242;2023-09-12T01:06:07;22.00;99.90
19164;DHT22;9714;51.208;4.242;2023-09-12T01:08:35;22.00;99.90
19164;DHT22;9714;51.208;4.242;2023-09-12T01:11:04;21.90;99.90
19164;DHT22;9714;51.208;4.242;2023-09-12T01:13:34;21.90;99.90
19164;DHT22;9714;51.208;4.242;2023-09-12T01:16:01;21.90;99.90
19164;DHT22;9714;51.208;4.242;2023-09-12T01:18:28;21.90;99.90
19164;DHT22;9714;51.208;4.242;2023-09-12T01:21:10;22.00;99.90
19164;DHT22;9714;51.208;4.242;2023-09-12T01:23:50;22.10;99.90
19164;DHT22;9714;51.208;4.242;2023-09-12T01:26:35;22.10;99.90
19164;DHT22;9714;51.208;4.242;2023-09-12T01:29:09;22.20;99.90
19164;DHT22;9714;51.208;4.242;2023-09-12T01:31:39;22.30;99.90
19164;DHT22;9714;51.208;4.242;2023-09-12T01:34:13;22.20;99.90
19164;DHT22;9714;51.208;4.242;2023-09-12T01:36:40;22.30;99.90
19164;DHT22;9714;51.208;4.242;2023-09-12T01:39:07;22.30;99.90
19164;DHT22;9714;51.208;4.242;2023-09-12T01:41:39;22.20;99.90
19164;DHT22;9714;51.208;4.242;2023-09-12T01:44:12;22.20;99.90
19164;DHT22;9714;51.208;4.242;2023-09-12T01:46:41;22.20;99.90
19164;DHT22;9714;51.208;4.242;2023-09-12T01:49:09;22.20;99.90
19164;DHT22;9714;51.208;4.242;2023-09-12T01:51:37;22.30;99.90
19164;DHT22;9714;51.208;4.242;2023-09-12T01:54:04;22.10;99.90
19164;DHT22;9714;51.208;4.242;2023-09-12T01:56:33;21.90;99.90
19164;DHT22;9714;51.208;4.242;2023-09-12T01:59:01;22.00;99.90
19164;DHT22;9714;51.208;4.242;2023-09-12T02:01:30;22.00;99.90
19164;DHT22;9714;51.208;4.242;2023-09-12T02:03:57;21.90;99.90
19164;DHT22;9714;51.208;4.242;2023-09-12T02:06:25;21.90;99.90
19164;DHT22;9714;51.208;4.242;2023-09-12T02:08:52;22.00;99.90
19164;DHT22;9714;51.208;4.242;2023-09-12T02:11:20;22.00;99.90
19164;DHT22;9714;51.208;4.242;2023-09-12T02:13:47;22.30;99.90
19164;DHT22;9714;51.208;4.242;2023-09-12T02:16:14;22.30;99.90
19164;DHT22;9714;51.208;4.242;2023-09-12T02:18:42;22.20;99.90
19164;DHT22;9714;51.208;4.242;2023-09-12T02:21:09;22.10;99.90
19164;DHT22;9714;51.208;4.242;2023-09-12T02:23:37;22.20;99.90
19164;DHT22;9714;51.208;4.242;2023-09-12T02:26:04;22.20;99.90
19164;DHT22;9714;51.208;4.242;2023-09-12T02:28:31;22.20;99.90
19164;DHT22;9714;51.208;4.242;2023-09-12T02:30:59;22.00;99.90
19164;DHT22;9714;51.208;4.242;2023-09-12T02:33:26;22.00;99.90
19164;DHT22;9714;51.208;4.242;2023-09-12T02:35:54;21.90;99.90
19164;DHT22;9714;51.208;4.242;2023-09-12T02:38:22;21.80;99.90
19164;DHT22;9714;51.208;4.242;2023-09-12T02:40:50;21.70;99.90
19164;DHT22;9714;51.208;4.242;2023-09-12T02:43:17;21.60;99.90
19164;DHT22;9714;51.208;4.242;2023-09-12T02:45:44;21.50;99.90
19164;DHT22;9714;51.208;4.242;2023-09-12T02:48:11;21.60;99.90
19164;DHT22;9714;51.208;4.242;2023-09-12T02:50:38;21.60;99.90
19164;DHT22;9714;51.208;4.242;2023-09-12T02:53:07;21.60;99.90
19164;DHT22;9714;51.208;4.242;2023-09-12T02:55:39;21.60;99.90
19164;DHT22;9714;51.208;4.242;2023-09-12T02:58:07;21.50;99.90
19164;DHT22;9714;51.208;4.242;2023-09-12T03:00:38;21.40;99.90
19164;DHT22;9714;51.208;4.242;2023-09-12T03:03:06;21.30;99.90
19164;DHT22;9714;51.208;4.242;2023-09-12T03:05:35;21.20;99.90
19164;DHT22;9714;51.208;4.242;2023-09-12T03:08:03;21.40;99.90
19164;DHT22;9714;51.208;4.242;2023-09-12T03:10:32;21.40;99.90
19164;DHT22;9714;51.208;4.242;2023-09-12T03:12:59;21.50;99.90
19164;DHT22;9714;51.208;4.242;2023-09-12T03:15:26;21.50;99.90
19164;DHT22;9714;51.208;4.242;2023-09-12T03:17:53;21.50;99.90
19164;DHT22;9714;51.208;4.242;2023-09-12T03:20:20;21.40;99.90
19164;DHT22;9714;51.208;4.242;2023-09-12T03:22:47;21.30;99.90
19164;DHT22;9714;51.208;4.242;2023-09-12T03:25:14;21.30;99.90
19164;DHT22;9714;51.208;4.242;2023-09-12T03:27:43;21.20;99.90
19164;DHT22;9714;51.208;4.242;2023-09-12T03:30:28;21.20;99.90
19164;DHT22;9714;51.208;4.242;2023-09-12T03:34:02;21.30;99.90
19164;DHT22;9714;51.208;4.242;2023-09-12T03:36:16;21.40;99.90
19164;DHT22;9714;51.208;4.242;2023-09-12T03:38:44;21.50;99.90
19164;DHT22;9714;51.208;4.242;2023-09-12T03:41:53;21.40;99.90
19164;DHT22;9714;51.208;4.242;2023-09-12T03:44:23;21.50;99.90
19164;DHT22;9714;51.208;4.242;2023-09-12T03:46:51;21.70;99.90
19164;DHT22;9714;51.208;4.242;2023-09-12T03:49:24;21.50;99.90
19164;DHT22;9714;51.208;4.242;2023-09-12T03:51:51;21.50;99.90
19164;DHT22;9714;51.208;4.242;2023-09-12T03:54:18;21.40;99.90
19164;DHT22;9714;51.208;4.242;2023-09-12T03:56:45;21.40;99.90
19164;DHT22;9714;51.208;4.242;2023-09-12T03:59:13;21.50;99.90
19164;DHT22;9714;51.208;4.242;2023-09-12T04:01:42;21.50;99.90
19164;DHT22;9714;51.208;4.242;2023-09-12T04:04:10;21.50;99.90
19164;DHT22;9714;51.208;4.242;2023-09-12T04:06:37;21.60;99.90
19164;DHT22;9714;51.208;4.242;2023-09-12T04:09:04;21.40;99.90
19164;DHT22;9714;51.208;4.242;2023-09-12T04:11:32;21.50;99.90
19164;DHT22;9714;51.208;4.242;2023-09-12T04:13:59;21.60;99.90
19164;DHT22;9714;51.208;4.242;2023-09-12T04:16:26;21.40;99.90
19164;DHT22;9714;51.208;4.242;2023-09-12T04:18:55;21.30;99.90
19164;DHT22;9714;51.208;4.242;2023-09-12T04:21:22;21.30;99.90
19164;DHT22;9714;51.208;4.242;2023-09-12T04:23:49;21.40;99.90
19164;DHT22;9714;51.208;4.242;2023-09-12T04:26:19;21.50;99.90
19164;DHT22;9714;51.208;4.242;2023-09-12T04:28:46;21.50;99.90
19164;DHT22;9714;51.208;4.242;2023-09-12T04:31:14;21.40;99.90
19164;DHT22;9714;51.208;4.242;2023-09-12T04:33:41;21.10;99.90
19164;DHT22;9714;51.208;4.242;2023-09-12T04:36:09;21.00;99.90
19164;DHT22;9714;51.208;4.242;2023-09-12T04:38:37;21.00;99.90
19164;DHT22;9714;51.208;4.242;2023-09-12T04:41:04;21.20;99.90
19164;DHT22;9714;51.208;4.242;2023-09-12T04:43:32;21.10;99.90
19164;DHT22;9714;51.208;4.242;2023-09-12T04:45:59;21.00;99.90
19164;DHT22;9714;51.208;4.242;2023-09-12T04:48:27;21.00;99.90
19164;DHT22;9714;51.208;4.242;2023-09-12T04:50:55;21.00;99.90
19164;DHT22;9714;51.208;4.242;2023-09-12T04:53:24;21.00;99.90
19164;DHT22;9714;51.208;4.242;2023-09-12T04:55:52;21.00;99.90
19164;DHT22;9714;51.208;4.242;2023-09-12T04:58:19;20.90;99.90
19164;DHT22;9714;51.208;4.242;2023-09-12T05:00:48;21.00;99.90
19164;DHT22;9714;51.208;4.242;2023-09-12T05:03:16;21.10;99.90
19164;DHT22;9714;51.208;4.242;2023-09-12T05:05:46;21.20;99.90
19164;DHT22;9714;51.208;4.242;2023-09-12T05:08:14;21.30;99.90
19164;DHT22;9714;51.208;4.242;2023-09-12T05:10:44;21.20;99.90
19164;DHT22;9714;51.208;4.242;2023-09-12T05:13:11;21.10;99.90
19164;DHT22;9714;51.208;4.242;2023-09-12T05:15:40;21.00;99.90
19164;DHT22;9714;51.208;4.242;2023-09-12T05:18:08;21.00;99.90
19164;DHT22;9714;51.208;4.242;2023-09-12T05:20:37;20.90;99.90
19164;DHT22;9714;51.208;4.242;2023-09-12T05:23:04;20.90;99.90
19164;DHT22;9714;51.208;4.242;2023-09-12T05:25:34;20.90;99.90
19164;DHT22;9714;51.208;4.242;2023-09-12T05:28:06;20.90;99.90
19164;DHT22;9714;51.208;4.242;2023-09-12T05:30:46;20.80;99.90
19164;DHT22;9714;51.208;4.242;2023-09-12T05:33:13;20.70;99.90
19164;DHT22;9714;51.208;4.242;2023-09-12T05:35:42;20.70;99.90
19164;DHT22;9714;51.208;4.242;2023-09-12T05:38:10;21.00;99.90
19164;DHT22;9714;51.208;4.242;2023-09-12T05:40:37;20.90;99.90
19164;DHT22;9714;51.208;4.242;2023-09-12T05:43:06;21.10;99.90
19164;DHT22;9714;51.208;4.242;2023-09-12T05:45:33;20.90;99.90
19164;DHT22;9714;51.208;4.242;2023-09-12T05:48:00;20.90;99.90
19164;DHT22;9714;51.208;4.242;2023-09-12T05:50:28;20.90;99.90
19164;DHT22;9714;51.208;4.242;2023-09-12T05:52:55;20.90;99.90
19164;DHT22;9714;51.208;4.242;2023-09-12T05:55:23;20.90;99.90
19164;DHT22;9714;51.208;4.242;2023-09-12T05:57:50;20.80;99.90
19164;DHT22;9714;51.208;4.242;2023-09-12T06:00:21;20.80;99.90
19164;DHT22;9714;51.208;4.242;2023-09-12T06:02:49;20.80;99.90
19164;DHT22;9714;51.208;4.242;2023-09-12T06:05:16;20.90;99.90
19164;DHT22;9714;51.208;4.242;2023-09-12T06:07:44;21.00;99.90
19164;DHT22;9714;51.208;4.242;2023-09-12T06:10:12;21.10;99.90
19164;DHT22;9714;51.208;4.242;2023-09-12T06:12:42;20.90;99.90
19164;DHT22;9714;51.208;4.242;2023-09-12T06:15:10;21.10;99.90
19164;DHT22;9714;51.208;4.242;2023-09-12T06:17:38;20.90;99.90
19164;DHT22;9714;51.208;4.242;2023-09-12T06:20:07;20.90;99.90
19164;DHT22;9714;51.208;4.242;2023-09-12T06:22:34;20.90;99.90
19164;DHT22;9714;51.208;4.242;2023-09-12T06:25:01;20.90;99.90
19164;DHT22;9714;51.208;4.242;2023-09-12T06:27:29;21.10;99.90
19164;DHT22;9714;51.208;4.242;2023-09-12T06:29:57;20.70;99.90
19164;DHT22;9714;51.208;4.242;2023-09-12T06:32:24;20.70;99.90
19164;DHT22;9714;51.208;4.242;2023-09-12T06:34:52;20.80;99.90
19164;DHT22;9714;51.208;4.242;2023-09-12T06:37:19;21.20;99.90
19164;DHT22;9714;51.208;4.242;2023-09-12T06:39:49;21.70;99.90
19164;DHT22;9714;51.208;4.242;2023-09-12T06:42:18;21.90;99.90
19164;DHT22;9714;51.208;4.242;2023-09-12T06:44:45;22.00;99.90
19164;DHT22;9714;51.208;4.242;2023-09-12T06:47:12;22.40;99.90
19164;DHT22;9714;51.208;4.242;2023-09-12T06:49:39;22.70;99.90
19164;DHT22;9714;51.208;4.242;2023-09-12T06:52:07;22.70;99.90
19164;DHT22;9714;51.208;4.242;2023-09-12T06:54:36;23.00;99.90
19164;DHT22;9714;51.208;4.242;2023-09-12T06:57:04;23.10;99.90
19164;DHT22;9714;51.208;4.242;2023-09-12T06:59:31;23.30;99.90
19164;DHT22;9714;51.208;4.242;2023-09-12T07:01:58;23.30;99.90
19164;DHT22;9714;51.208;4.242;2023-09-12T07:04:25;23.50;99.90
19164;DHT22;9714;51.208;4.242;2023-09-12T07:06:52;23.60;99.90
19164;DHT22;9714;51.208;4.242;2023-09-12T07:09:23;23.90;99.90
19164;DHT22;9714;51.208;4.242;2023-09-12T07:11:50;24.10;99.90
19164;DHT22;9714;51.208;4.242;2023-09-12T07:14:17;24.10;99.90
19164;DHT22;9714;51.208;4.242;2023-09-12T07:16:46;23.70;99.90
19164;DHT22;9714;51.208;4.242;2023-09-12T07:19:13;23.20;99.90
19164;DHT22;9714;51.208;4.242;2023-09-12T07:21:42;23.10;99.90
19164;DHT22;9714;51.208;4.242;2023-09-12T07:24:09;23.10;99.90
19164;DHT22;9714;51.208;4.242;2023-09-12T07:26:37;23.20;99.90
19164;DHT22;9714;51.208;4.242;2023-09-12T07:29:04;23.20;99.90
19164;DHT22;9714;51.208;4.242;2023-09-12T07:31:32;22.80;99.90
19164;DHT22;9714;51.208;4.242;2023-09-12T07:34:01;22.80;99.90
19164;DHT22;9714;51.208;4.242;2023-09-12T07:36:29;22.80;99.90
19164;DHT22;9714;51.208;4.242;2023-09-12T07:38:58;22.60;99.90
19164;DHT22;9714;51.208;4.242;2023-09-12T07:41:26;22.30;99.90
19164;DHT22;9714;51.208;4.242;2023-09-12T07:43:54;22.30;99.90
19164;DHT22;9714;51.208;4.242;2023-09-12T07:46:21;22.30;99.90
19164;DHT22;9714;51.208;4.242;2023-09-12T07:48:48;22.30;99.90
19164;DHT22;9714;51.208;4.242;2023-09-12T07:51:16;22.50;99.90
19164;DHT22;9714;51.208;4.242;2023-09-12T07:53:44;22.80;99.90
19164;DHT22;9714;51.208;4.242;2023-09-12T07:56:10;22.70;99.90
19164;DHT22;9714;51.208;4.242;2023-09-12T07:58:37;23.00;99.90
19164;DHT22;9714;51.208;4.242;2023-09-12T08:01:08;23.80;99.90
19164;DHT22;9714;51.208;4.242;2023-09-12T08:03:36;24.70;99.90
19164;DHT22;9714;51.208;4.242;2023-09-12T08:06:05;25.30;99.90
19164;DHT22;9714;51.208;4.242;2023-09-12T08:08:32;25.00;99.90
19164;DHT22;9714;51.208;4.242;2023-09-12T08:11:00;24.70;99.90
19164;DHT22;9714;51.208;4.242;2023-09-12T08:13:28;24.70;99.90
19164;DHT22;9714;51.208;4.242;2023-09-12T08:15:56;24.50;99.90
19164;DHT22;9714;51.208;4.242;2023-09-12T08:18:26;24.70;99.90
19164;DHT22;9714;51.208;4.242;2023-09-12T08:20:54;24.70;99.90
19164;DHT22;9714;51.208;4.242;2023-09-12T08:23:23;24.80;99.90
19164;DHT22;9714;51.208;4.242;2023-09-12T08:25:50;25.30;99.90
19164;DHT22;9714;51.208;4.242;2023-09-12T08:28:17;26.00;99.90
19164;DHT22;9714;51.208;4.242;2023-09-12T08:30:44;26.40;99.90
19164;DHT22;9714;51.208;4.242;2023-09-12T08:33:11;27.30;99.90
19164;DHT22;9714;51.208;4.242;2023-09-12T08:35:40;27.40;99.90
19164;DHT22;9714;51.208;4.242;2023-09-12T08:38:07;28.20;99.90
19164;DHT22;9714;51.208;4.242;2023-09-12T08:40:35;28.50;99.90
19164;DHT22;9714;51.208;4.242;2023-09-12T08:43:03;28.50;99.90
19164;DHT22;9714;51.208;4.242;2023-09-12T08:45:30;28.90;99.90
19164;DHT22;9714;51.208;4.242;2023-09-12T08:47:59;29.40;99.90
19164;DHT22;9714;51.208;4.242;2023-09-12T08:50:27;28.70;99.90
19164;DHT22;9714;51.208;4.242;2023-09-12T08:52:58;28.20;99.90
19164;DHT22;9714;51.208;4.242;2023-09-12T08:55:25;27.80;99.90
19164;DHT22;9714;51.208;4.242;2023-09-12T08:57:53;28.40;99.90
19164;DHT22;9714;51.208;4.242;2023-09-12T09:00:22;28.80;99.90
19164;DHT22;9714;51.208;4.242;2023-09-12T09:02:50;28.90;99.90
19164;DHT22;9714;51.208;4.242;2023-09-12T09:05:21;29.50;99.90
19164;DHT22;9714;51.208;4.242;2023-09-12T09:07:49;29.80;99.90
19164;DHT22;9714;51.208;4.242;2023-09-12T09:10:19;30.10;99.90
19164;DHT22;9714;51.208;4.242;2023-09-12T09:12:46;30.40;99.90
19164;DHT22;9714;51.208;4.242;2023-09-12T09:15:24;30.60;99.90
19164;DHT22;9714;51.208;4.242;2023-09-12T09:17:52;31.10;99.90
19164;DHT22;9714;51.208;4.242;2023-09-12T09:20:25;31.30;99.90
19164;DHT22;9714;51.208;4.242;2023-09-12T09:22:57;31.60;99.90
19164;DHT22;9714;51.208;4.242;2023-09-12T09:25:26;31.60;99.90
19164;DHT22;9714;51.208;4.242;2023-09-12T09:27:53;31.90;99.90
19164;DHT22;9714;51.208;4.242;2023-09-12T09:30:39;31.80;99.90
19164;DHT22;9714;51.208;4.242;2023-09-12T09:33:07;31.60;99.90
19164;DHT22;9714;51.208;4.242;2023-09-12T09:35:34;31.80;99.90
19164;DHT22;9714;51.208;4.242;2023-09-12T09:38:03;32.40;99.50
19164;DHT22;9714;51.208;4.242;2023-09-12T09:40:34;31.90;99.70
19164;DHT22;9714;51.208;4.242;2023-09-12T09:43:02;31.70;99.90
19164;DHT22;9714;51.208;4.242;2023-09-12T09:45:32;31.90;99.90
19164;DHT22;9714;51.208;4.242;2023-09-12T09:48:04;32.70;98.50
19164;DHT22;9714;51.208;4.242;2023-09-12T09:50:34;32.20;98.50
19164;DHT22;9714;51.208;4.242;2023-09-12T09:53:03;32.40;98.90
19164;DHT22;9714;51.208;4.242;2023-09-12T09:55:30;32.80;97.50
19164;DHT22;9714;51.208;4.242;2023-09-12T09:58:00;32.50;97.40
19164;DHT22;9714;51.208;4.242;2023-09-12T10:00:28;32.30;98.00
19164;DHT22;9714;51.208;4.242;2023-09-12T10:02:56;32.90;95.70
19164;DHT22;9714;51.208;4.242;2023-09-12T10:05:24;33.50;95.10
19164;DHT22;9714;51.208;4.242;2023-09-12T10:07:54;34.40;93.70
19164;DHT22;9714;51.208;4.242;2023-09-12T10:10:24;34.40;91.20
19164;DHT22;9714;51.208;4.242;2023-09-12T10:12:56;34.50;89.50
19164;DHT22;9714;51.208;4.242;2023-09-12T10:15:30;34.40;89.30
19164;DHT22;9714;51.208;4.242;2023-09-12T10:17:58;34.20;89.10
19164;DHT22;9714;51.208;4.242;2023-09-12T10:20:29;34.10;89.20
19164;DHT22;9714;51.208;4.242;2023-09-12T10:23:05;34.30;89.20
19164;DHT22;9714;51.208;4.242;2023-09-12T10:25:36;34.80;86.40
19164;DHT22;9714;51.208;4.242;2023-09-12T10:28:04;34.60;86.70
19164;DHT22;9714;51.208;4.242;2023-09-12T10:30:37;35.00;84.30
19164;DHT22;9714;51.208;4.242;2023-09-12T10:33:05;35.20;83.70
19164;DHT22;9714;51.208;4.242;2023-09-12T10:35:32;35.60;80.80
19164;DHT22;9714;51.208;4.242;2023-09-12T10:38:02;35.80;78.90
19164;DHT22;9714;51.208;4.242;2023-09-12T10:40:31;35.70;77.90
19164;DHT22;9714;51.208;4.242;2023-09-12T10:43:00;35.80;79.30
19164;DHT22;9714;51.208;4.242;2023-09-12T10:45:31;36.90;76.70
19164;DHT22;9714;51.208;4.242;2023-09-12T10:48:01;36.80;73.80
19164;DHT22;9714;51.208;4.242;2023-09-12T10:50:29;37.30;72.10
19164;DHT22;9714;51.208;4.242;2023-09-12T10:53:07;36.90;73.10
19164;DHT22;9714;51.208;4.242;2023-09-12T10:55:34;37.20;69.90
19164;DHT22;9714;51.208;4.242;2023-09-12T10:58:03;38.00;69.00
19164;DHT22;9714;51.208;4.242;2023-09-12T11:00:31;37.90;66.60
19164;DHT22;9714;51.208;4.242;2023-09-12T11:03:10;38.10;65.50
19164;DHT22;9714;51.208;4.242;2023-09-12T11:05:51;37.40;64.80
19164;DHT22;9714;51.208;4.242;2023-09-12T11:08:19;37.50;65.40
19164;DHT22;9714;51.208;4.242;2023-09-12T11:11:16;38.00;64.00
19164;DHT22;9714;51.208;4.242;2023-09-12T11:13:44;38.70;62.20
19164;DHT22;9714;51.208;4.242;2023-09-12T11:16:13;38.60;60.70
19164;DHT22;9714;51.208;4.242;2023-09-12T11:19:13;38.90;58.90
19164;DHT22;9714;51.208;4.242;2023-09-12T11:21:41;39.00;58.00
19164;DHT22;9714;51.208;4.242;2023-09-12T11:24:08;37.90;59.80
19164;DHT22;9714;51.208;4.242;2023-09-12T11:26:35;37.90;60.00
19164;DHT22;9714;51.208;4.242;2023-09-12T11:29:12;37.40;61.50
19164;DHT22;9714;51.208;4.242;2023-09-12T11:31:39;37.90;61.50
19164;DHT22;9714;51.208;4.242;2023-09-12T11:34:09;38.20;60.20
19164;DHT22;9714;51.208;4.242;2023-09-12T11:36:41;38.60;59.60
19164;DHT22;9714;51.208;4.242;2023-09-12T11:39:22;38.20;59.80
19164;DHT22;9714;51.208;4.242;2023-09-12T11:41:52;38.10;59.10
19164;DHT22;9714;51.208;4.242;2023-09-12T11:44:20;38.60;59.90
19164;DHT22;9714;51.208;4.242;2023-09-12T11:46:48;39.40;58.20
19164;DHT22;9714;51.208;4.242;2023-09-12T11:49:17;38.40;59.50
19164;DHT22;9714;51.208;4.242;2023-09-12T11:51:52;38.80;57.70
19164;DHT22;9714;51.208;4.242;2023-09-12T11:54:20;37.30;58.80
19164;DHT22;9714;51.208;4.242;2023-09-12T11:56:51;36.90;59.70
19164;DHT22;9714;51.208;4.242;2023-09-12T11:59:22;36.30;61.20
19164;DHT22;9714;51.208;4.242;2023-09-12T12:01:50;37.20;60.90
19164;DHT22;9714;51.208;4.242;2023-09-12T12:04:20;38.00;59.10
19164;DHT22;9714;51.208;4.242;2023-09-12T12:06:48;37.80;59.50
19164;DHT22;9714;51.208;4.242;2023-09-12T12:09:17;38.30;59.60
19164;DHT22;9714;51.208;4.242;2023-09-12T12:11:46;39.50;57.10
19164;DHT22;9714;51.208;4.242;2023-09-12T12:14:14;39.20;56.00
19164;DHT22;9714;51.208;4.242;2023-09-12T12:16:42;38.60;56.70
19164;DHT22;9714;51.208;4.242;2023-09-12T12:19:09;39.50;54.80
19164;DHT22;9714;51.208;4.242;2023-09-12T12:21:37;40.40;53.10
19164;DHT22;9714;51.208;4.242;2023-09-12T12:24:07;40.80;52.60
19164;DHT22;9714;51.208;4.242;2023-09-12T12:26:35;40.50;53.60
19164;DHT22;9714;51.208;4.242;2023-09-12T12:29:04;40.90;53.40
19164;DHT22;9714;51.208;4.242;2023-09-12T12:31:31;40.70;53.20
19164;DHT22;9714;51.208;4.242;2023-09-12T12:33:58;40.30;52.90
19164;DHT22;9714;51.208;4.242;2023-09-12T12:36:25;38.70;54.30
19164;DHT22;9714;51.208;4.242;2023-09-12T12:38:53;37.90;55.90
19164;DHT22;9714;51.208;4.242;2023-09-12T12:41:25;38.00;56.50
19164;DHT22;9714;51.208;4.242;2023-09-12T12:43:55;38.70;56.20
19164;DHT22;9714;51.208;4.242;2023-09-12T12:46:25;38.40;55.80
19164;DHT22;9714;51.208;4.242;2023-09-12T12:48:53;37.80;57.50
19164;DHT22;9714;51.208;4.242;2023-09-12T12:51:22;38.20;56.10
19164;DHT22;9714;51.208;4.242;2023-09-12T12:53:52;37.00;56.90
19164;DHT22;9714;51.208;4.242;2023-09-12T12:56:20;35.50;58.20
19164;DHT22;9714;51.208;4.242;2023-09-12T12:58:49;34.80;60.30
19164;DHT22;9714;51.208;4.242;2023-09-12T13:01:18;35.50;60.90
19164;DHT22;9714;51.208;4.242;2023-09-12T13:03:45;36.30;60.60
19164;DHT22;9714;51.208;4.242;2023-09-12T13:06:13;35.30;61.70
19164;DHT22;9714;51.208;4.242;2023-09-12T13:08:45;34.90;63.00
19164;DHT22;9714;51.208;4.242;2023-09-12T13:11:13;35.90;61.80
19164;DHT22;9714;51.208;4.242;2023-09-12T13:13:41;36.30;61.80
19164;DHT22;9714;51.208;4.242;2023-09-12T13:16:12;36.60;61.10
19164;DHT22;9714;51.208;4.242;2023-09-12T13:18:41;38.20;59.70
19164;DHT22;9714;51.208;4.242;2023-09-12T13:21:08;38.30;58.70
19164;DHT22;9714;51.208;4.242;2023-09-12T13:23:35;38.50;58.20
19164;DHT22;9714;51.208;4.242;2023-09-12T13:26:03;38.30;58.20
19164;DHT22;9714;51.208;4.242;2023-09-12T13:28:31;37.30;59.50
19164;DHT22;9714;51.208;4.242;2023-09-12T13:30:58;37.60;60.30
19164;DHT22;9714;51.208;4.242;2023-09-12T13:33:25;38.50;60.10
19164;DHT22;9714;51.208;4.242;2023-09-12T13:35:53;38.10;60.20
19164;DHT22;9714;51.208;4.242;2023-09-12T13:38:21;37.30;61.00
19164;DHT22;9714;51.208;4.242;2023-09-12T13:40:48;36.70;62.70
19164;DHT22;9714;51.208;4.242;2023-09-12T13:43:16;35.60;63.80
19164;DHT22;9714;51.208;4.242;2023-09-12T13:45:44;35.10;64.90
19164;DHT22;9714;51.208;4.242;2023-09-12T13:48:11;34.30;66.40
19164;DHT22;9714;51.208;4.242;2023-09-12T13:50:39;34.10;67.90
19164;DHT22;9714;51.208;4.242;2023-09-12T13:53:10;34.40;67.20
19164;DHT22;9714;51.208;4.242;2023-09-12T13:55:37;34.20;68.40
19164;DHT22;9714;51.208;4.242;2023-09-12T13:58:05;34.70;67.70
19164;DHT22;9714;51.208;4.242;2023-09-12T14:00:34;34.70;67.20
19164;DHT22;9714;51.208;4.242;2023-09-12T14:03:01;35.00;67.50
19164;DHT22;9714;51.208;4.242;2023-09-12T14:05:29;35.10;66.70
19164;DHT22;9714;51.208;4.242;2023-09-12T14:07:56;35.80;65.70
19164;DHT22;9714;51.208;4.242;2023-09-12T14:10:26;35.20;66.50
19164;DHT22;9714;51.208;4.242;2023-09-12T14:12:53;35.60;65.60
19164;DHT22;9714;51.208;4.242;2023-09-12T14:15:20;35.60;65.90
19164;DHT22;9714;51.208;4.242;2023-09-12T14:17:47;34.80;66.60
19164;DHT22;9714;51.208;4.242;2023-09-12T14:20:14;34.90;67.20
19164;DHT22;9714;51.208;4.242;2023-09-12T14:22:42;34.10;68.90
19164;DHT22;9714;51.208;4.242;2023-09-12T14:25:10;33.90;69.70
19164;DHT22;9714;51.208;4.242;2023-09-12T14:27:43;33.60;71.00
19164;DHT22;9714;51.208;4.242;2023-09-12T14:30:11;32.60;72.60
19164;DHT22;9714;51.208;4.242;2023-09-12T14:32:39;31.90;75.10
19164;DHT22;9714;51.208;4.242;2023-09-12T14:35:08;31.40;77.60
19164;DHT22;9714;51.208;4.242;2023-09-12T14:37:35;31.20;79.30
19164;DHT22;9714;51.208;4.242;2023-09-12T14:40:04;30.60;82.20
19164;DHT22;9714;51.208;4.242;2023-09-12T14:42:31;30.10;85.40
19164;DHT22;9714;51.208;4.242;2023-09-12T14:45:00;30.20;87.60
19164;DHT22;9714;51.208;4.242;2023-09-12T14:47:27;29.50;90.50
19164;DHT22;9714;51.208;4.242;2023-09-12T14:49:56;29.50;92.80
19164;DHT22;9714;51.208;4.242;2023-09-12T14:52:24;29.30;94.40
19164;DHT22;9714;51.208;4.242;2023-09-12T14:54:52;29.20;96.10
19164;DHT22;9714;51.208;4.242;2023-09-12T14:57:19;29.20;97.10
19164;DHT22;9714;51.208;4.242;2023-09-12T14:59:49;29.10;98.00
19164;DHT22;9714;51.208;4.242;2023-09-12T15:02:18;29.10;99.40
19164;DHT22;9714;51.208;4.242;2023-09-12T15:04:46;29.10;99.40
19164;DHT22;9714;51.208;4.242;2023-09-12T15:07:13;29.30;99.80
19164;DHT22;9714;51.208;4.242;2023-09-12T15:09:40;29.30;99.00
19164;DHT22;9714;51.208;4.242;2023-09-12T15:12:07;29.20;99.60
19164;DHT22;9714;51.208;4.242;2023-09-12T15:14:34;29.00;99.90
19164;DHT22;9714;51.208;4.242;2023-09-12T15:17:01;28.80;99.90
19164;DHT22;9714;51.208;4.242;2023-09-12T15:19:30;28.50;99.90
19164;DHT22;9714;51.208;4.242;2023-09-12T15:21:57;28.40;99.90
19164;DHT22;9714;51.208;4.242;2023-09-12T15:24:24;28.70;99.90
19164;DHT22;9714;51.208;4.242;2023-09-12T15:26:52;28.70;99.90
19164;DHT22;9714;51.208;4.242;2023-09-12T15:29:20;28.30;99.90
19164;DHT22;9714;51.208;4.242;2023-09-12T15:31:47;28.40;99.90
19164;DHT22;9714;51.208;4.242;2023-09-12T15:34:14;28.30;99.90
19164;DHT22;9714;51.208;4.242;2023-09-12T15:36:44;28.30;99.90
19164;DHT22;9714;51.208;4.242;2023-09-12T15:39:12;28.10;99.90
19164;DHT22;9714;51.208;4.242;2023-09-12T15:41:39;28.10;99.90
19164;DHT22;9714;51.208;4.242;2023-09-12T15:44:07;28.20;99.90
19164;DHT22;9714;51.208;4.242;2023-09-12T15:46:34;27.90;99.90
19164;DHT22;9714;51.208;4.242;2023-09-12T15:49:02;27.50;99.90
19164;DHT22;9714;51.208;4.242;2023-09-12T15:51:31;27.80;99.90
19164;DHT22;9714;51.208;4.242;2023-09-12T15:54:00;27.90;99.90
19164;DHT22;9714;51.208;4.242;2023-09-12T15:56:27;27.70;99.90